Time;durP1;ratioP1;P1;durP2;ratioP2;P2;SDS_P1;SDS_P2;PMS_P1;PMS_P2;Temp;Humidity;BMP_temperature;BMP_pressure;BME280_temperature;BME280_humidity;BME280_pressure;Samples;Min_cycle;Max_cycle;Signal;HPM_P1;HPM_P2
2022/09/04 00:01:09;;;;;;;2.10;2.00;;;19.00;40.60;;;;;;10534092;28;20702;-75
2022/09/04 00:06:17;;;;;;;1.80;1.70;;;19.00;40.40;;;;;;10533363;28;20306;-75
2022/09/04 00:11:34;;;;;;;1.90;1.80;;;19.00;40.20;;;;;;10533654;28;20232;-75
2022/09/04 00:16:44;;;;;;;2.20;2.00;;;18.90;40.50;;;;;;10533648;28;20235;-75
2022/09/04 00:21:52;;;;;;;3.00;2.23;;;18.90;40.40;;;;;;10533141;28;20231;-74
2022/09/04 00:27:05;;;;;;;3.03;1.87;;;18.80;40.40;;;;;;10533034;28;20233;-75
2022/09/04 00:32:20;;;;;;;2.40;2.30;;;18.80;40.50;;;;;;10532735;28;20228;-76
2022/09/04 00:37:28;;;;;;;2.33;2.03;;;18.70;40.30;;;;;;10532266;28;20671;-75
2022/09/04 00:43:05;;;;;;;2.23;1.80;;;18.70;40.30;;;;;;10532613;28;20241;-75
2022/09/04 00:48:34;;;;;;;1.83;1.73;;;18.70;40.60;;;;;;10532025;28;20223;-75
2022/09/04 00:53:58;;;;;;;2.53;2.20;;;18.60;40.50;;;;;;10531741;28;20235;-75
2022/09/04 00:59:14;;;;;;;2.30;2.20;;;18.60;40.50;;;;;;10530743;28;20230;-75
2022/09/04 01:04:39;;;;;;;2.20;2.10;;;18.60;40.70;;;;;;10531562;28;20246;-75
2022/09/04 01:09:53;;;;;;;2.33;2.10;;;18.50;40.60;;;;;;10531219;28;20223;-75
2022/09/04 01:15:13;;;;;;;2.40;2.20;;;18.50;41.10;;;;;;10531110;28;20253;-74
2022/09/04 01:20:26;;;;;;;2.20;2.10;;;18.50;41.00;;;;;;10531264;28;20258;-75
2022/09/04 01:26:00;;;;;;;1.80;1.70;;;18.50;40.90;;;;;;10530976;28;20236;-75
2022/09/04 01:31:12;;;;;;;2.13;1.97;;;18.50;40.70;;;;;;10530441;28;20230;-75
2022/09/04 01:36:25;;;;;;;2.40;2.20;;;18.40;40.60;;;;;;10530708;28;20230;-75
2022/09/04 01:41:32;;;;;;;2.03;1.93;;;18.40;40.70;;;;;;10530530;28;20219;-75
2022/09/04 01:46:58;;;;;;;1.70;1.60;;;18.30;40.70;;;;;;10530242;28;20234;-75
2022/09/04 01:52:11;;;;;;;2.60;2.10;;;18.30;40.80;;;;;;10529776;28;20257;-75
2022/09/04 01:57:29;;;;;;;2.27;1.87;;;18.20;41.00;;;;;;10529820;28;20223;-76
2022/09/04 02:02:47;;;;;;;3.23;1.90;;;18.20;41.10;;;;;;10529636;28;20223;-75
2022/09/04 02:08:05;;;;;;;2.40;2.20;;;18.10;40.60;;;;;;10529598;28;20255;-75
2022/09/04 02:13:19;;;;;;;2.50;2.30;;;18.10;40.80;;;;;;10541078;28;20235;-75
2022/09/04 02:18:34;;;;;;;2.37;2.00;;;17.90;40.80;;;;;;10543490;28;20308;-75
2022/09/04 02:23:44;;;;;;;2.40;2.20;;;17.80;41.20;;;;;;10543348;28;20264;-75
2022/09/04 02:28:56;;;;;;;2.17;1.97;;;17.80;41.00;;;;;;10543457;28;20230;-75
2022/09/04 02:34:07;;;;;;;1.80;1.70;;;17.80;41.30;;;;;;10543234;28;20266;-75
2022/09/04 02:39:23;;;;;;;2.70;2.10;;;17.80;41.40;;;;;;10542840;28;20246;-76
2022/09/04 02:44:43;;;;;;;2.00;1.90;;;17.80;41.50;;;;;;10542876;28;20321;-75
2022/09/04 02:49:55;;;;;;;2.07;1.97;;;17.70;41.30;;;;;;10543100;28;20227;-75
2022/09/04 02:55:11;;;;;;;2.53;1.90;;;17.80;41.30;;;;;;10542716;28;20242;-75
2022/09/04 03:00:19;;;;;;;1.80;1.70;;;17.80;41.10;;;;;;10542845;28;20227;-75
2022/09/04 03:05:26;;;;;;;1.80;1.70;;;17.70;40.90;;;;;;10542364;28;20648;-76
2022/09/04 03:10:33;;;;;;;2.47;2.23;;;17.70;40.90;;;;;;10542390;28;20229;-73
2022/09/04 03:15:43;;;;;;;2.33;2.17;;;17.70;40.90;;;;;;10542230;28;20357;-74
2022/09/04 03:20:52;;;;;;;1.70;1.60;;;17.60;41.30;;;;;;10541660;28;20245;-74
2022/09/04 03:26:22;;;;;;;2.10;2.00;;;17.60;41.00;;;;;;10534971;28;20231;-74
2022/09/04 03:31:32;;;;;;;1.90;1.77;;;17.60;41.20;;;;;;10532633;28;20579;-73
2022/09/04 03:36:48;;;;;;;2.23;2.13;;;17.50;41.40;;;;;;10534971;28;20257;-73
2022/09/04 03:42:04;;;;;;;2.07;1.97;;;17.50;41.70;;;;;;10534984;28;20237;-74
2022/09/04 03:47:15;;;;;;;2.20;2.10;;;17.50;41.80;;;;;;10534252;28;20223;-74
2022/09/04 03:52:25;;;;;;;1.80;1.70;;;17.50;42.00;;;;;;10534317;28;20235;-74
2022/09/04 03:57:53;;;;;;;1.83;1.70;;;17.50;41.90;;;;;;10533921;28;20708;-73
2022/09/04 04:03:11;;;;;;;2.00;1.90;;;17.50;42.10;;;;;;10533888;28;20228;-73
2022/09/04 04:08:35;;;;;;;2.30;2.10;;;17.50;42.40;;;;;;10533420;28;20226;-73
2022/09/04 04:14:00;;;;;;;1.80;1.70;;;17.50;42.50;;;;;;10533416;28;20758;-73
2022/09/04 04:19:26;;;;;;;2.30;2.10;;;17.50;42.30;;;;;;10532822;28;20229;-76
2022/09/04 04:24:46;;;;;;;2.20;2.00;;;17.60;42.80;;;;;;10532917;28;20242;-74
2022/09/04 04:30:03;;;;;;;2.07;1.97;;;17.60;42.30;;;;;;10532752;28;20229;-74
2022/09/04 04:35:18;;;;;;;2.17;2.00;;;17.60;42.80;;;;;;10532382;28;20235;-74
2022/09/04 04:40:34;;;;;;;2.30;2.10;;;17.60;43.00;;;;;;10532539;28;20238;-76
2022/09/04 04:45:53;;;;;;;2.50;2.37;;;17.60;43.10;;;;;;10532235;28;20232;-74
2022/09/04 04:51:11;;;;;;;2.80;2.60;;;17.60;42.60;;;;;;10532147;28;20235;-74
2022/09/04 04:56:18;;;;;;;2.50;2.30;;;17.50;43.40;;;;;;10531984;28;20231;-73
2022/09/04 05:01:41;;;;;;;2.80;2.57;;;17.50;43.40;;;;;;10532016;28;20235;-73
2022/09/04 05:06:52;;;;;;;3.13;2.80;;;17.50;43.90;;;;;;10531506;28;20254;-74
2022/09/04 05:12:03;;;;;;;3.70;2.60;;;17.50;44.10;;;;;;10531579;28;20254;-76
2022/09/04 05:17:14;;;;;;;2.80;2.60;;;17.50;44.10;;;;;;10531085;28;20871;-72
2022/09/04 05:22:29;;;;;;;4.03;2.13;;;17.50;44.00;;;;;;10531010;28;20239;-74
2022/09/04 05:27:47;;;;;;;4.17;2.60;;;17.50;44.60;;;;;;10530761;28;20377;-74
2022/09/04 05:32:58;;;;;;;2.60;2.40;;;17.50;44.80;;;;;;10530723;28;20235;-74
2022/09/04 05:38:08;;;;;;;2.40;2.20;;;17.60;45.00;;;;;;10529966;28;20322;-74
2022/09/04 05:43:24;;;;;;;2.30;2.10;;;17.60;44.80;;;;;;10530624;28;20243;-74
2022/09/04 05:48:34;;;;;;;2.33;2.13;;;17.70;45.20;;;;;;10529601;28;20593;-75
2022/09/04 05:54:01;;;;;;;2.30;2.13;;;17.70;45.10;;;;;;10529992;28;20238;-74
2022/09/04 05:59:37;;;;;;;2.50;2.30;;;17.80;45.30;;;;;;10529487;28;20713;-74
2022/09/04 06:05:05;;;;;;;2.30;2.20;;;17.90;45.80;;;;;;10526266;28;20228;-72
2022/09/04 06:10:17;;;;;;;2.50;2.30;;;18.00;45.90;;;;;;10529326;28;20231;-74
2022/09/04 06:15:33;;;;;;;2.67;2.43;;;18.00;46.10;;;;;;10529449;28;20700;-74
2022/09/04 06:20:56;;;;;;;2.80;2.60;;;18.10;45.80;;;;;;10529707;28;20283;-74
2022/09/04 06:26:23;;;;;;;2.93;2.73;;;18.20;46.70;;;;;;10528898;28;20235;-73
2022/09/04 06:31:52;;;;;;;2.77;2.57;;;18.20;46.50;;;;;;10528794;28;20742;-77
2022/09/04 06:37:07;;;;;;;2.90;2.70;;;18.30;46.80;;;;;;10528756;28;20246;-74
2022/09/04 06:42:23;;;;;;;3.10;2.80;;;18.40;46.80;;;;;;10529198;28;20235;-74
2022/09/04 06:47:46;;;;;;;2.80;2.60;;;18.50;46.90;;;;;;10528906;28;20223;-74
2022/09/04 06:53:07;;;;;;;3.27;2.97;;;18.60;46.90;;;;;;10528386;28;20235;-74
2022/09/04 06:58:28;;;;;;;4.13;2.83;;;18.70;47.60;;;;;;10560726;28;20284;-73
2022/09/04 07:03:43;;;;;;;2.47;2.27;;;18.80;47.70;;;;;;10578409;28;20711;-73
2022/09/04 07:08:57;;;;;;;3.00;2.70;;;18.90;47.30;;;;;;10535824;28;20226;-74
2022/09/04 07:14:20;;;;;;;2.90;2.70;;;19.00;47.90;;;;;;10535822;28;20228;-73
2022/09/04 07:20:08;;;;;;;2.83;2.67;;;19.10;47.90;;;;;;10535635;28;20231;-73
2022/09/04 07:25:17;;;;;;;2.67;2.47;;;19.20;47.70;;;;;;10515606;28;20238;-73
2022/09/04 07:30:24;;;;;;;2.70;2.50;;;19.30;46.70;;;;;;10555183;28;20317;-73
2022/09/04 07:35:35;;;;;;;2.60;2.50;;;19.40;46.90;;;;;;10560134;28;20304;-76
2022/09/04 07:40:43;;;;;;;3.10;2.90;;;19.60;47.00;;;;;;10565401;28;20234;-73
2022/09/04 07:45:57;;;;;;;2.40;2.30;;;19.70;47.30;;;;;;10552508;28;20227;-73
2022/09/04 07:51:10;;;;;;;3.03;2.83;;;19.80;47.20;;;;;;10559857;28;20610;-71
2022/09/04 07:56:24;;;;;;;3.37;3.07;;;19.90;47.30;;;;;;10563215;28;20246;-76
2022/09/04 08:01:52;;;;;;;2.80;2.60;;;20.10;47.50;;;;;;10562367;28;20249;-75
2022/09/04 08:06:59;;;;;;;3.13;2.93;;;20.20;47.40;;;;;;10557161;28;20786;-72
2022/09/04 08:12:34;;;;;;;3.40;3.10;;;20.40;46.90;;;;;;10558840;28;20231;-73
2022/09/04 08:17:59;;;;;;;2.73;2.53;;;20.50;47.20;;;;;;10553124;28;20234;-73
2022/09/04 08:23:16;;;;;;;3.13;2.93;;;20.60;47.20;;;;;;10541950;28;20318;-72
2022/09/04 08:28:35;;;;;;;3.03;2.83;;;20.80;46.80;;;;;;10546480;28;20225;-72
2022/09/04 08:34:00;;;;;;;3.20;3.00;;;21.00;47.20;;;;;;10566476;28;20240;-74
2022/09/04 08:39:08;;;;;;;3.50;3.17;;;21.10;46.80;;;;;;10542544;28;20736;-73
2022/09/04 08:45:06;;;;;;;3.77;3.47;;;21.30;46.20;;;;;;10552547;28;20227;-72
2022/09/04 08:50:44;;;;;;;3.63;3.33;;;21.40;46.60;;;;;;10551815;28;20215;-71
2022/09/04 08:56:08;;;;;;;3.23;3.03;;;21.60;46.80;;;;;;10555688;28;20226;-71
2022/09/04 09:01:40;;;;;;;3.20;3.00;;;21.80;46.60;;;;;;10553433;28;20226;-72
2022/09/04 09:07:26;;;;;;;3.03;2.83;;;21.90;46.20;;;;;;10543973;28;20710;-72
2022/09/04 09:13:09;;;;;;;3.17;2.93;;;22.20;46.60;;;;;;10563756;28;20234;-72
2022/09/04 09:18:34;;;;;;;4.73;3.07;;;22.40;46.30;;;;;;10531380;28;20227;-72
2022/09/04 09:23:53;;;;;;;3.83;3.53;;;22.70;46.70;;;;;;10557959;28;20233;-72
2022/09/04 09:29:34;;;;;;;3.20;3.00;;;23.00;45.10;;;;;;10554884;28;20225;-72
2022/09/04 09:35:28;;;;;;;3.33;3.03;;;23.20;45.60;;;;;;10547277;28;20231;-71
2022/09/04 09:41:06;;;;;;;3.90;3.60;;;23.50;45.10;;;;;;10558734;28;20688;-71
2022/09/04 09:46:31;;;;;;;3.17;2.97;;;23.80;44.50;;;;;;10549268;28;20234;-72
2022/09/04 09:52:07;;;;;;;3.40;3.10;;;24.00;43.70;;;;;;10558674;28;20578;-72
2022/09/04 09:57:42;;;;;;;4.43;3.47;;;24.30;43.90;;;;;;10551011;28;20250;-72
2022/09/04 10:03:33;;;;;;;3.17;2.87;;;24.60;43.30;;;;;;10553300;28;20908;-71
2022/09/04 10:09:10;;;;;;;3.40;3.20;;;24.90;43.30;;;;;;10547557;28;20219;-72
2022/09/04 10:14:58;;;;;;;3.07;2.87;;;25.10;42.50;;;;;;10547808;28;20746;-72
2022/09/04 10:20:31;;;;;;;3.03;2.83;;;25.30;41.90;;;;;;10556194;28;20250;-71
2022/09/04 10:26:02;;;;;;;2.97;2.77;;;25.60;42.10;;;;;;10546524;28;20227;-71
2022/09/04 10:31:43;;;;;;;3.30;3.00;;;25.70;41.30;;;;;;10528275;28;20584;-72
2022/09/04 10:36:58;;;;;;;3.00;2.80;;;25.90;40.40;;;;;;10557065;28;20223;-72
2022/09/04 10:42:10;;;;;;;2.70;2.50;;;26.00;40.20;;;;;;10561757;28;20229;-72
2022/09/04 10:47:29;;;;;;;2.80;2.60;;;26.10;39.90;;;;;;10555597;28;20302;-72
2022/09/04 10:53:00;;;;;;;2.50;2.40;;;26.20;39.80;;;;;;10556617;28;20251;-71
2022/09/04 10:58:27;;;;;;;2.33;2.20;;;26.30;39.70;;;;;;10559239;28;20740;-72
2022/09/04 11:03:43;;;;;;;2.03;1.93;;;26.40;39.10;;;;;;10558424;28;20226;-72
2022/09/04 11:09:09;;;;;;;2.20;2.00;;;26.40;38.90;;;;;;10560251;28;20229;-72
2022/09/04 11:14:43;;;;;;;2.40;2.20;;;26.50;38.30;;;;;;10561618;28;20298;-72
2022/09/04 11:20:25;;;;;;;2.30;2.10;;;26.60;37.90;;;;;;10552936;28;20227;-71
2022/09/04 11:26:04;;;;;;;1.70;1.60;;;26.60;38.70;;;;;;10564678;28;20222;-70
2022/09/04 11:31:29;;;;;;;1.80;1.70;;;26.70;38.00;;;;;;10508913;28;20238;-71
2022/09/04 11:37:09;;;;;;;1.57;1.47;;;26.90;36.90;;;;;;10554827;28;20245;-72
2022/09/04 11:42:29;;;;;;;1.60;1.50;;;27.00;36.80;;;;;;10559894;28;20229;-72
2022/09/04 11:48:10;;;;;;;1.83;1.73;;;27.10;36.40;;;;;;10554601;28;20222;-72
2022/09/04 11:53:33;;;;;;;1.60;1.50;;;27.20;36.10;;;;;;10513444;28;20227;-72
2022/09/04 11:59:00;;;;;;;1.77;1.40;;;27.30;35.20;;;;;;10558989;28;20726;-71
2022/09/04 12:04:33;;;;;;;1.47;1.40;;;27.30;35.20;;;;;;10559432;28;20234;-72
2022/09/04 12:10:05;;;;;;;1.60;1.50;;;27.20;34.50;;;;;;10554308;28;20260;-72
2022/09/04 12:15:43;;;;;;;1.63;1.40;;;27.10;34.60;;;;;;10555389;28;20230;-72
2022/09/04 12:21:11;;;;;;;1.20;1.20;;;27.00;35.00;;;;;;10560220;28;20235;-72
2022/09/04 12:26:32;;;;;;;1.40;1.40;;;27.10;35.10;;;;;;10551292;28;20715;-71
2022/09/04 12:31:58;;;;;;;1.50;1.40;;;27.10;34.50;;;;;;10552053;28;20230;-72
2022/09/04 12:37:18;;;;;;;1.37;1.33;;;27.20;33.90;;;;;;10552286;28;20275;-72
2022/09/04 12:42:28;;;;;;;1.83;1.23;;;27.40;33.90;;;;;;10558697;28;20231;-73
2022/09/04 12:47:44;;;;;;;1.30;1.20;;;27.40;32.80;;;;;;10561387;28;20580;-72
2022/09/04 12:53:25;;;;;;;1.30;1.20;;;27.50;31.70;;;;;;10544603;28;20223;-72
2022/09/04 12:58:43;;;;;;;1.53;1.13;;;27.50;32.70;;;;;;10471607;28;20935;-72
2022/09/04 13:03:57;;;;;;;1.60;1.50;;;27.60;31.80;;;;;;10542811;28;20231;-72
2022/09/04 13:09:14;;;;;;;1.50;1.40;;;27.60;30.30;;;;;;10548454;28;20231;-72
2022/09/04 13:14:44;;;;;;;1.33;1.23;;;27.60;30.00;;;;;;10543534;28;20302;-72
2022/09/04 13:19:58;;;;;;;1.20;1.20;;;27.60;30.00;;;;;;10541831;28;20227;-72
2022/09/04 13:25:14;;;;;;;1.00;1.00;;;27.70;30.00;;;;;;10537320;28;20229;-72
2022/09/04 13:30:23;;;;;;;1.27;1.17;;;27.60;29.40;;;;;;10545769;28;20219;-72
2022/09/04 13:35:40;;;;;;;1.10;1.10;;;27.60;30.00;;;;;;10538720;28;20720;-72
2022/09/04 13:41:22;;;;;;;1.10;1.10;;;27.60;30.00;;;;;;10539999;28;20238;-72
2022/09/04 13:46:37;;;;;;;1.37;1.27;;;27.60;30.00;;;;;;10439639;28;20301;-72
2022/09/04 13:51:45;;;;;;;1.00;1.00;;;27.70;29.80;;;;;;10535700;28;21004;-72
2022/09/04 13:56:55;;;;;;;1.30;1.30;;;27.70;30.00;;;;;;10539093;28;20223;-72
2022/09/04 14:02:04;;;;;;;1.70;1.60;;;27.80;30.10;;;;;;10540697;28;20321;-72
2022/09/04 14:07:13;;;;;;;1.43;1.30;;;27.90;30.10;;;;;;10538017;28;20223;-72
2022/09/04 14:12:36;;;;;;;1.40;1.30;;;28.00;29.30;;;;;;10542865;28;20588;-73
2022/09/04 14:17:49;;;;;;;1.20;1.20;;;28.00;30.20;;;;;;10540774;28;20646;-72
2022/09/04 14:23:01;;;;;;;1.30;1.17;;;28.10;29.30;;;;;;10535584;28;20223;-71
2022/09/04 14:28:15;;;;;;;1.20;1.10;;;28.20;28.60;;;;;;10549978;28;20222;-73
2022/09/04 14:33:27;;;;;;;1.40;1.17;;;28.20;28.60;;;;;;10548139;28;20227;-73
2022/09/04 14:38:55;;;;;;;1.07;1.07;;;28.20;27.80;;;;;;10536909;28;20220;-73
2022/09/04 14:44:11;;;;;;;2.10;1.20;;;28.20;28.20;;;;;;10544160;28;20307;-73
2022/09/04 14:49:20;;;;;;;1.50;1.33;;;28.30;27.90;;;;;;10547256;28;20226;-73
2022/09/04 14:54:27;;;;;;;1.10;1.10;;;28.30;28.50;;;;;;10541210;28;20231;-73
2022/09/04 14:59:36;;;;;;;1.30;1.20;;;28.40;27.80;;;;;;10540180;28;20227;-72
2022/09/04 15:04:45;;;;;;;1.20;1.20;;;28.40;27.70;;;;;;10542202;28;20599;-73
2022/09/04 15:09:50;;;;;;;1.30;1.20;;;28.40;27.50;;;;;;10542796;28;20216;-72
2022/09/04 15:15:06;;;;;;;1.37;1.27;;;28.40;27.50;;;;;;10542470;28;20234;-73
2022/09/04 15:20:19;;;;;;;1.20;1.10;;;28.40;26.90;;;;;;10550569;28;20250;-73
2022/09/04 15:25:40;;;;;;;1.10;1.10;;;28.30;27.30;;;;;;10558858;28;20235;-73
2022/09/04 15:31:12;;;;;;;1.30;1.20;;;28.40;27.00;;;;;;10553022;28;20766;-73
2022/09/04 15:36:23;;;;;;;1.13;1.03;;;28.40;26.80;;;;;;10552459;28;20226;-73
2022/09/04 15:41:37;;;;;;;1.07;1.07;;;28.40;27.20;;;;;;10551550;28;20249;-73
2022/09/04 15:46:50;;;;;;;1.70;1.20;;;28.40;26.10;;;;;;10549057;28;20714;-73
2022/09/04 15:52:06;;;;;;;1.17;1.00;;;28.40;26.90;;;;;;10550655;28;20239;-73
2022/09/04 15:57:16;;;;;;;1.37;0.97;;;28.40;27.10;;;;;;10551141;28;20590;-73
2022/09/04 16:02:35;;;;;;;2.10;1.23;;;28.40;26.80;;;;;;10547351;28;20234;-73
2022/09/04 16:07:46;;;;;;;1.30;1.20;;;28.50;26.70;;;;;;10549076;28;20254;-74
2022/09/04 16:12:56;;;;;;;1.50;1.20;;;28.50;26.40;;;;;;10547441;28;20223;-73
2022/09/04 16:18:10;;;;;;;1.00;1.00;;;28.50;26.90;;;;;;10548506;28;20311;-73
2022/09/04 16:23:17;;;;;;;1.30;1.30;;;28.50;26.90;;;;;;10551724;28;20235;-73
2022/09/04 16:28:30;;;;;;;1.00;1.00;;;28.50;27.10;;;;;;10551809;28;20707;-73
2022/09/04 16:33:37;;;;;;;1.20;1.20;;;28.50;26.20;;;;;;10550524;28;20223;-73
2022/09/04 16:38:47;;;;;;;1.57;1.20;;;28.50;26.90;;;;;;10552258;28;20230;-72
2022/09/04 16:44:10;;;;;;;1.30;1.20;;;28.50;27.20;;;;;;10541348;28;20229;-73
2022/09/04 16:49:22;;;;;;;3.67;1.53;;;28.50;27.90;;;;;;10548466;28;20229;-73
2022/09/04 16:54:32;;;;;;;1.80;1.50;;;28.60;28.00;;;;;;10542966;28;20231;-73
2022/09/04 16:59:41;;;;;;;1.60;1.50;;;28.60;27.90;;;;;;10546230;28;20230;-73
2022/09/04 17:04:54;;;;;;;1.80;1.70;;;28.50;27.70;;;;;;10547714;28;20331;-74
2022/09/04 17:10:04;;;;;;;1.70;1.60;;;28.50;27.90;;;;;;10556610;28;20222;-74
2022/09/04 17:15:20;;;;;;;1.70;1.60;;;28.40;27.90;;;;;;10539845;28;20223;-73
2022/09/04 17:20:29;;;;;;;2.27;1.53;;;28.30;28.10;;;;;;10549203;28;20230;-73
2022/09/04 17:25:57;;;;;;;1.77;1.67;;;28.20;28.30;;;;;;10543280;28;20230;-72
2022/09/04 17:31:27;;;;;;;4.23;1.90;;;28.10;28.80;;;;;;10542122;28;20212;-73
2022/09/04 17:36:40;;;;;;;2.17;1.97;;;28.00;28.90;;;;;;10537491;28;20227;-74
2022/09/04 17:42:08;;;;;;;4.07;1.77;;;27.90;28.80;;;;;;10545347;28;20714;-72
2022/09/04 17:47:31;;;;;;;1.50;1.40;;;27.80;29.10;;;;;;10534377;28;20697;-74
2022/09/04 17:52:53;;;;;;;3.77;1.70;;;27.70;28.90;;;;;;10544463;28;20246;-73
2022/09/04 17:58:03;;;;;;;2.93;1.67;;;27.50;29.00;;;;;;10540572;28;20241;-73
2022/09/04 18:03:20;;;;;;;1.40;1.30;;;27.30;29.30;;;;;;10542338;28;20743;-73
2022/09/04 18:08:32;;;;;;;1.47;1.37;;;27.10;29.50;;;;;;10541538;28;20243;-73
2022/09/04 18:13:42;;;;;;;1.70;1.60;;;27.00;29.70;;;;;;10584685;22;20225;-73
2022/09/04 18:18:49;;;;;;;1.63;1.53;;;26.90;29.70;;;;;;10594859;27;20223;-72
2022/09/04 18:24:02;;;;;;;1.80;1.70;;;26.70;29.70;;;;;;10598398;27;20237;-72
2022/09/04 18:29:34;;;;;;;1.73;1.50;;;26.60;29.70;;;;;;10596657;27;20624;-72
2022/09/04 18:35:04;;;;;;;1.80;1.70;;;26.40;29.70;;;;;;10598737;27;20233;-73
2022/09/04 18:40:41;;;;;;;2.30;1.90;;;26.30;30.00;;;;;;10596645;27;20235;-73
2022/09/04 18:46:06;;;;;;;1.90;1.80;;;26.20;30.10;;;;;;10601822;27;20219;-73
2022/09/04 18:51:39;;;;;;;2.13;2.00;;;26.10;30.10;;;;;;10597302;27;20225;-72
2022/09/04 18:56:48;;;;;;;1.97;1.80;;;26.00;30.50;;;;;;10598267;27;21222;-74
2022/09/04 19:02:00;;;;;;;2.13;1.90;;;25.80;30.60;;;;;;10595692;27;20692;-73
2022/09/04 19:07:07;;;;;;;2.17;1.80;;;25.70;31.60;;;;;;10601508;27;20229;-72
2022/09/04 19:12:17;;;;;;;1.97;1.70;;;25.70;30.80;;;;;;10601777;27;20222;-73
2022/09/04 19:17:24;;;;;;;2.07;1.93;;;25.60;31.10;;;;;;10590472;27;20215;-72
2022/09/04 19:22:34;;;;;;;2.07;1.97;;;25.40;31.10;;;;;;10599840;27;20229;-72
2022/09/04 19:27:42;;;;;;;2.00;1.90;;;25.30;31.30;;;;;;10586193;27;20642;-72
2022/09/04 19:33:03;;;;;;;1.67;1.57;;;25.20;31.50;;;;;;10598960;27;20234;-71
2022/09/04 19:38:14;;;;;;;2.30;2.10;;;25.20;31.60;;;;;;10593443;27;20225;-74
2022/09/04 19:43:47;;;;;;;3.13;2.40;;;25.00;31.60;;;;;;10597923;27;20900;-73
2022/09/04 19:49:18;;;;;;;2.43;2.20;;;24.90;31.80;;;;;;10596015;27;20218;-73
2022/09/04 19:54:48;;;;;;;2.37;2.20;;;24.70;31.90;;;;;;10599031;27;21087;-74
2022/09/04 20:00:22;;;;;;;2.27;2.17;;;24.50;31.90;;;;;;10600966;27;20305;-71
2022/09/04 20:05:53;;;;;;;2.73;2.53;;;24.10;32.30;;;;;;10602206;27;20233;-73
2022/09/04 20:11:03;;;;;;;2.90;2.60;;;23.80;32.70;;;;;;10593146;27;20231;-74
2022/09/04 20:16:19;;;;;;;3.17;2.37;;;23.50;32.70;;;;;;10609669;27;20226;-74
2022/09/04 20:21:26;;;;;;;2.13;2.03;;;23.40;33.50;;;;;;10590229;27;20295;-74
2022/09/04 20:26:32;;;;;;;2.30;2.10;;;23.30;33.40;;;;;;10585242;27;20229;-72
2022/09/04 20:31:48;;;;;;;2.63;2.40;;;23.20;33.50;;;;;;10602859;27;21032;-74
2022/09/04 20:36:58;;;;;;;2.70;2.50;;;23.20;34.10;;;;;;10578913;27;20283;-74
2022/09/04 20:42:06;;;;;;;2.70;2.50;;;23.20;33.80;;;;;;10609421;27;20229;-73
2022/09/04 20:47:19;;;;;;;2.33;2.20;;;23.10;33.60;;;;;;10602008;27;20721;-72
2022/09/04 20:52:49;;;;;;;2.80;2.40;;;23.10;33.70;;;;;;10586852;27;20235;-73
2022/09/04 20:58:41;;;;;;;2.00;1.90;;;23.00;33.50;;;;;;10579975;27;20210;-70
2022/09/04 21:04:16;;;;;;;2.80;2.60;;;22.90;33.70;;;;;;10597773;27;20241;-74
2022/09/04 21:09:41;;;;;;;2.90;2.67;;;22.80;34.10;;;;;;10599177;27;20249;-74
2022/09/04 21:15:06;;;;;;;2.83;2.60;;;22.70;34.10;;;;;;10584910;27;20241;-74
2022/09/04 21:20:45;;;;;;;3.00;2.70;;;22.60;34.20;;;;;;10608995;27;20226;-73
2022/09/04 21:26:16;;;;;;;3.50;2.70;;;22.50;33.80;;;;;;10608278;27;20781;-75
2022/09/04 21:31:35;;;;;;;2.70;2.50;;;22.30;34.50;;;;;;10594521;27;20693;-74
2022/09/04 21:36:53;;;;;;;2.50;2.30;;;22.20;34.50;;;;;;10565492;27;20233;-74
2022/09/04 21:42:12;;;;;;;2.80;2.60;;;22.10;34.70;;;;;;10607111;27;20236;-72
2022/09/04 21:47:57;;;;;;;2.43;2.23;;;21.90;35.00;;;;;;10577056;27;20264;-74
2022/09/04 21:53:22;;;;;;;2.60;2.37;;;21.80;34.80;;;;;;10592716;27;20237;-73
2022/09/04 21:59:00;;;;;;;3.53;2.73;;;21.70;35.30;;;;;;10595778;27;20222;-73
2022/09/04 22:04:32;;;;;;;2.80;2.60;;;21.50;35.40;;;;;;10591766;27;20231;-75
2022/09/04 22:09:57;;;;;;;2.90;2.70;;;21.40;36.60;;;;;;10589338;27;20850;-73
2022/09/04 22:15:31;;;;;;;2.53;2.33;;;21.20;35.90;;;;;;10577257;27;20232;-73
2022/09/04 22:20:52;;;;;;;3.23;2.83;;;21.10;36.40;;;;;;10589158;27;20233;-73
2022/09/04 22:26:13;;;;;;;2.87;2.50;;;21.00;36.30;;;;;;10595732;27;20227;-74
2022/09/04 22:32:11;;;;;;;2.80;2.60;;;21.00;36.40;;;;;;10612789;27;20225;-70
2022/09/04 22:37:59;;;;;;;2.53;2.33;;;21.00;35.80;;;;;;10582986;27;20239;-75
2022/09/04 22:43:13;;;;;;;2.73;2.40;;;20.90;36.20;;;;;;10576048;28;20223;-77
2022/09/04 22:48:52;;;;;;;2.67;2.47;;;20.90;36.30;;;;;;10619325;27;20233;-76
2022/09/04 22:54:32;;;;;;;2.97;2.67;;;20.90;36.00;;;;;;10621974;27;20232;-76
2022/09/04 23:00:00;;;;;;;2.40;2.20;;;20.80;36.30;;;;;;10622141;27;20229;-76
2022/09/04 23:05:25;;;;;;;2.37;2.27;;;20.70;36.40;;;;;;10621241;27;20229;-74
2022/09/04 23:10:48;;;;;;;2.10;2.00;;;20.70;36.50;;;;;;10621729;27;20217;-74
2022/09/04 23:16:31;;;;;;;2.57;2.47;;;20.70;36.60;;;;;;10620949;27;20228;-75
2022/09/04 23:21:51;;;;;;;2.80;2.20;;;20.70;36.30;;;;;;10621064;27;20226;-74
2022/09/04 23:27:30;;;;;;;2.10;2.00;;;20.70;36.50;;;;;;10620268;27;20221;-75
2022/09/04 23:33:18;;;;;;;2.73;2.53;;;20.70;36.60;;;;;;10620896;27;20221;-74
2022/09/04 23:38:56;;;;;;;2.63;2.13;;;20.60;36.50;;;;;;10618989;27;20214;-76
2022/09/04 23:44:38;;;;;;;2.70;2.50;;;20.50;36.40;;;;;;10617286;27;20237;-75
2022/09/04 23:49:57;;;;;;;2.23;2.00;;;20.50;36.30;;;;;;10577470;28;20605;-75
2022/09/04 23:55:18;;;;;;;2.33;2.23;;;20.40;36.50;;;;;;10577112;28;20234;-75
